Charter Quote
Worldwide +1-877-727-2538 Call
Select Language Lang
SAFETY RELIABILITY EXPERIENCE

Piacenza Airport (LIMS) - Jet Charter Services

AIRPORT INFORMATION
ICAOLIMS
IATAQPZ
LOCATIONPiacenza, Italy
FACILITY TYPEAIRPORT
Runway Length (ft) Width (ft) Surface Type Elevation (ft)
30/12 9828 148 ASP 455.70492

At Paramount Business Jets you can hire chartered private jets to and from Piacenza Airport with as little as 4 hours of notice. All flights booked via Paramount Business Jets are operated by certified direct air carriers that meet and exceed the FAA part 135 and 121 protocol or a foreign equivalent safety authority. Furthermore, Paramount Business Jets subscribes to ARGUS for their third party safety checks of operators, aircraft, and crews prior each and every flight to and from Piacenza Airport and worldwide.

  • Quote a trip using Piacenza Airport or call us 24/7 - 365 days a year at +1-877-727-2538.
Questions? Call +1-877-727-2538

METAR Weather Data at Piacenza Airport, LIMS, QPZ

STATIONLIMS
OBSERVEDMon Mar 18, 17:55 UTC
NOWTue Mar 19, 03:33 UTC
AGE9:38 hr ago
WINDESE at 14 mph
VISIBILITY16 miles
CLOUDSpartly cloudy
TEMP52°F (11°C)
DEWPT48°F (9°C)
HUMIDITY88%
BAROMETER1015 hPa (29.97 in Hg)
METARLIMS 181755Z 12012KT 9999 FEW040 11/09 Q1015

Call us on +1-877-727-2538 (24 Hours) to Hire a Private Jet or Get a Quick Quote.

Find Airports Near any Location

Processing
...